sensor_id;sensor_type;location;lat;lon;timestamp;pressure;altitude;pressure_sealevel;temperature;humidity
26531;BME280;14201;43.188;24.160;2023-01-31T00:00:17;99238.69;;;2.82;73.27
26531;BME280;14201;43.188;24.160;2023-01-31T00:02:43;99252.34;;;2.81;72.73
26531;BME280;14201;43.188;24.160;2023-01-31T00:05:08;99241.59;;;3.00;72.18
26531;BME280;14201;43.188;24.160;2023-01-31T00:07:34;99247.19;;;2.81;72.58
26531;BME280;14201;43.188;24.160;2023-01-31T00:09:59;99243.00;;;2.69;73.75
26531;BME280;14201;43.188;24.160;2023-01-31T00:12:24;99239.06;;;2.74;73.53
26531;BME280;14201;43.188;24.160;2023-01-31T00:14:50;99229.00;;;2.78;73.81
26531;BME280;14201;43.188;24.160;2023-01-31T00:17:15;99238.47;;;2.65;73.51
26531;BME280;14201;43.188;24.160;2023-01-31T00:19:40;99234.97;;;2.51;71.58
26531;BME280;14201;43.188;24.160;2023-01-31T00:22:06;99246.50;;;2.70;70.56
26531;BME280;14201;43.188;24.160;2023-01-31T00:24:31;99244.16;;;3.00;69.24
26531;BME280;14201;43.188;24.160;2023-01-31T00:26:57;99239.13;;;3.14;67.84
26531;BME280;14201;43.188;24.160;2023-01-31T00:29:22;99249.09;;;3.10;68.10
26531;BME280;14201;43.188;24.160;2023-01-31T00:31:48;99240.13;;;3.17;67.97
26531;BME280;14201;43.188;24.160;2023-01-31T00:34:14;99241.09;;;3.05;67.36
26531;BME280;14201;43.188;24.160;2023-01-31T00:36:39;99236.44;;;3.13;67.39
26531;BME280;14201;43.188;24.160;2023-01-31T00:39:05;99242.19;;;3.35;66.67
26531;BME280;14201;43.188;24.160;2023-01-31T00:41:31;99235.84;;;3.30;67.04
26531;BME280;14201;43.188;24.160;2023-01-31T00:43:57;99225.47;;;3.15;66.17
26531;BME280;14201;43.188;24.160;2023-01-31T00:46:23;99225.78;;;3.20;66.61
26531;BME280;14201;43.188;24.160;2023-01-31T00:48:48;99222.88;;;3.15;66.94
26531;BME280;14201;43.188;24.160;2023-01-31T00:51:14;99220.13;;;3.26;67.41
26531;BME280;14201;43.188;24.160;2023-01-31T00:53:39;99222.28;;;3.33;68.08
26531;BME280;14201;43.188;24.160;2023-01-31T00:56:06;99213.50;;;3.16;68.21
26531;BME280;14201;43.188;24.160;2023-01-31T00:58:32;99215.66;;;3.10;68.66
26531;BME280;14201;43.188;24.160;2023-01-31T01:01:05;99215.47;;;2.93;69.05
26531;BME280;14201;43.188;24.160;2023-01-31T01:03:31;99217.75;;;3.15;68.87
26531;BME280;14201;43.188;24.160;2023-01-31T01:05:56;99216.16;;;3.18;67.66
26531;BME280;14201;43.188;24.160;2023-01-31T01:08:21;99210.94;;;3.16;68.11
26531;BME280;14201;43.188;24.160;2023-01-31T01:10:47;99205.56;;;3.13;68.11
26531;BME280;14201;43.188;24.160;2023-01-31T01:13:12;99200.44;;;3.00;68.82
26531;BME280;14201;43.188;24.160;2023-01-31T01:15:38;99206.16;;;2.95;68.24
26531;BME280;14201;43.188;24.160;2023-01-31T01:18:03;99214.78;;;3.09;67.68
26531;BME280;14201;43.188;24.160;2023-01-31T01:20:29;99213.78;;;3.07;66.72
26531;BME280;14201;43.188;24.160;2023-01-31T01:22:54;99209.25;;;3.17;67.42
26531;BME280;14201;43.188;24.160;2023-01-31T01:25:20;99204.97;;;3.17;67.43
26531;BME280;14201;43.188;24.160;2023-01-31T01:27:45;99215.75;;;3.25;67.00
26531;BME280;14201;43.188;24.160;2023-01-31T01:30:10;99206.47;;;3.13;66.03
26531;BME280;14201;43.188;24.160;2023-01-31T01:32:36;99214.88;;;3.11;64.87
26531;BME280;14201;43.188;24.160;2023-01-31T01:35:01;99208.66;;;3.21;65.08
26531;BME280;14201;43.188;24.160;2023-01-31T01:37:27;99204.09;;;3.17;65.10
26531;BME280;14201;43.188;24.160;2023-01-31T01:39:54;99206.47;;;3.27;65.19
26531;BME280;14201;43.188;24.160;2023-01-31T01:42:21;99204.47;;;3.23;64.39
26531;BME280;14201;43.188;24.160;2023-01-31T01:49:40;99184.19;;;3.27;60.47
26531;BME280;14201;43.188;24.160;2023-01-31T01:52:06;99196.88;;;3.24;63.23
26531;BME280;14201;43.188;24.160;2023-01-31T01:54:34;99189.13;;;3.38;56.73
26531;BME280;14201;43.188;24.160;2023-01-31T01:57:01;99195.31;;;3.54;54.31
26531;BME280;14201;43.188;24.160;2023-01-31T01:59:29;99192.03;;;3.70;55.00
26531;BME280;14201;43.188;24.160;2023-01-31T02:01:56;99195.63;;;3.59;55.95
26531;BME280;14201;43.188;24.160;2023-01-31T02:04:23;99204.63;;;3.52;53.24
26531;BME280;14201;43.188;24.160;2023-01-31T02:06:49;99205.22;;;3.62;54.87
26531;BME280;14201;43.188;24.160;2023-01-31T02:09:21;99211.06;;;3.72;53.92
26531;BME280;14201;43.188;24.160;2023-01-31T02:11:49;99218.78;;;3.72;54.04
26531;BME280;14201;43.188;24.160;2023-01-31T02:14:15;99205.69;;;3.69;55.32
26531;BME280;14201;43.188;24.160;2023-01-31T02:16:41;99217.69;;;3.69;54.49
26531;BME280;14201;43.188;24.160;2023-01-31T02:19:11;99213.81;;;3.62;55.75
26531;BME280;14201;43.188;24.160;2023-01-31T02:22:42;99213.69;;;3.74;55.36
26531;BME280;14201;43.188;24.160;2023-01-31T02:24:45;99214.03;;;3.65;55.11
26531;BME280;14201;43.188;24.160;2023-01-31T02:28:00;99221.25;;;3.71;55.52
26531;BME280;14201;43.188;24.160;2023-01-31T02:35:27;99245.50;;;3.74;54.98
26531;BME280;14201;43.188;24.160;2023-01-31T02:43:23;99253.00;;;3.85;55.53
26531;BME280;14201;43.188;24.160;2023-01-31T02:49:06;99253.63;;;3.81;56.74
26531;BME280;14201;43.188;24.160;2023-01-31T02:51:07;99253.28;;;3.89;54.89
26531;BME280;14201;43.188;24.160;2023-01-31T02:53:36;99258.06;;;3.83;57.04
26531;BME280;14201;43.188;24.160;2023-01-31T02:56:08;99253.72;;;3.82;58.29
26531;BME280;14201;43.188;24.160;2023-01-31T02:58:39;99246.88;;;3.83;59.13
26531;BME280;14201;43.188;24.160;2023-01-31T03:01:08;99247.28;;;3.75;59.56
26531;BME280;14201;43.188;24.160;2023-01-31T03:03:35;99257.66;;;3.90;59.35
26531;BME280;14201;43.188;24.160;2023-01-31T03:08:40;99239.59;;;4.04;59.03
26531;BME280;14201;43.188;24.160;2023-01-31T03:11:07;99229.88;;;4.00;60.74
26531;BME280;14201;43.188;24.160;2023-01-31T03:13:36;99230.31;;;3.92;61.18
26531;BME280;14201;43.188;24.160;2023-01-31T03:19:14;99232.50;;;3.86;62.84
26531;BME280;14201;43.188;24.160;2023-01-31T03:21:51;99238.13;;;3.94;63.23
26531;BME280;14201;43.188;24.160;2023-01-31T03:24:19;99254.25;;;3.91;63.15
26531;BME280;14201;43.188;24.160;2023-01-31T03:26:46;99259.41;;;3.91;63.82
26531;BME280;14201;43.188;24.160;2023-01-31T03:29:12;99250.28;;;3.97;64.03
26531;BME280;14201;43.188;24.160;2023-01-31T03:31:40;99266.75;;;3.99;64.34
26531;BME280;14201;43.188;24.160;2023-01-31T03:34:08;99265.97;;;4.00;65.38
26531;BME280;14201;43.188;24.160;2023-01-31T03:36:38;99267.56;;;3.98;65.97
26531;BME280;14201;43.188;24.160;2023-01-31T03:39:09;99268.22;;;3.95;66.01
26531;BME280;14201;43.188;24.160;2023-01-31T03:44:14;99282.59;;;3.91;66.65
26531;BME280;14201;43.188;24.160;2023-01-31T03:46:43;99279.84;;;3.88;66.95
26531;BME280;14201;43.188;24.160;2023-01-31T03:49:10;99291.75;;;3.86;67.10
26531;BME280;14201;43.188;24.160;2023-01-31T03:51:37;99293.53;;;3.74;67.85
26531;BME280;14201;43.188;24.160;2023-01-31T03:54:07;99290.44;;;3.93;67.48
26531;BME280;14201;43.188;24.160;2023-01-31T03:56:39;99302.94;;;3.87;68.03
26531;BME280;14201;43.188;24.160;2023-01-31T03:59:08;99304.19;;;3.93;68.35
26531;BME280;14201;43.188;24.160;2023-01-31T04:01:36;99308.38;;;3.91;68.59
26531;BME280;14201;43.188;24.160;2023-01-31T04:04:07;99304.81;;;3.89;68.35
26531;BME280;14201;43.188;24.160;2023-01-31T04:06:33;99301.06;;;3.71;69.29
26531;BME280;14201;43.188;24.160;2023-01-31T04:08:58;99300.47;;;3.75;69.05
26531;BME280;14201;43.188;24.160;2023-01-31T04:11:25;99298.78;;;3.75;69.24
26531;BME280;14201;43.188;24.160;2023-01-31T04:13:50;99303.03;;;3.88;68.83
26531;BME280;14201;43.188;24.160;2023-01-31T04:16:16;99295.53;;;3.78;69.00
26531;BME280;14201;43.188;24.160;2023-01-31T04:18:41;99311.00;;;3.78;69.17
26531;BME280;14201;43.188;24.160;2023-01-31T04:21:07;99314.06;;;3.86;68.61
26531;BME280;14201;43.188;24.160;2023-01-31T04:23:34;99321.09;;;3.75;69.26
26531;BME280;14201;43.188;24.160;2023-01-31T04:25:59;99311.75;;;3.90;68.77
26531;BME280;14201;43.188;24.160;2023-01-31T04:28:24;99319.59;;;3.92;68.62
26531;BME280;14201;43.188;24.160;2023-01-31T04:30:53;99319.00;;;3.83;69.04
26531;BME280;14201;43.188;24.160;2023-01-31T04:33:19;99313.84;;;3.83;69.02
26531;BME280;14201;43.188;24.160;2023-01-31T04:35:45;99314.72;;;3.83;68.94
26531;BME280;14201;43.188;24.160;2023-01-31T04:38:10;99308.19;;;3.88;68.58
26531;BME280;14201;43.188;24.160;2023-01-31T04:40:36;99310.06;;;3.91;68.04
26531;BME280;14201;43.188;24.160;2023-01-31T04:43:01;99319.59;;;3.79;68.47
26531;BME280;14201;43.188;24.160;2023-01-31T04:45:26;99315.91;;;3.88;68.83
26531;BME280;14201;43.188;24.160;2023-01-31T04:47:52;99314.72;;;3.83;68.76
26531;BME280;14201;43.188;24.160;2023-01-31T04:50:17;99317.41;;;3.71;68.97
26531;BME280;14201;43.188;24.160;2023-01-31T04:52:42;99308.31;;;3.77;68.87
26531;BME280;14201;43.188;24.160;2023-01-31T04:55:10;99317.31;;;3.83;68.36
26531;BME280;14201;43.188;24.160;2023-01-31T04:57:36;99319.38;;;3.75;68.26
26531;BME280;14201;43.188;24.160;2023-01-31T05:00:02;99325.34;;;3.74;69.37
26531;BME280;14201;43.188;24.160;2023-01-31T05:02:29;99329.28;;;3.83;68.45
26531;BME280;14201;43.188;24.160;2023-01-31T05:04:54;99316.41;;;3.83;68.39
26531;BME280;14201;43.188;24.160;2023-01-31T05:07:19;99321.09;;;3.75;68.45
26531;BME280;14201;43.188;24.160;2023-01-31T05:09:45;99335.22;;;3.82;68.11
26531;BME280;14201;43.188;24.160;2023-01-31T05:12:10;99330.38;;;3.86;67.99
26531;BME280;14201;43.188;24.160;2023-01-31T05:14:36;99337.31;;;3.87;68.61
26531;BME280;14201;43.188;24.160;2023-01-31T05:17:01;99340.88;;;3.89;68.67
26531;BME280;14201;43.188;24.160;2023-01-31T05:19:26;99341.69;;;3.88;68.24
26531;BME280;14201;43.188;24.160;2023-01-31T05:21:52;99342.66;;;3.90;68.72
26531;BME280;14201;43.188;24.160;2023-01-31T05:24:29;99350.00;;;3.98;67.92
26531;BME280;14201;43.188;24.160;2023-01-31T05:26:56;99353.56;;;4.00;67.44
26531;BME280;14201;43.188;24.160;2023-01-31T05:29:29;99345.91;;;4.01;67.62
26531;BME280;14201;43.188;24.160;2023-01-31T05:31:55;99364.66;;;3.99;67.16
26531;BME280;14201;43.188;24.160;2023-01-31T05:34:21;99366.03;;;3.93;67.52
26531;BME280;14201;43.188;24.160;2023-01-31T05:36:48;99365.25;;;3.94;67.43
26531;BME280;14201;43.188;24.160;2023-01-31T05:39:13;99376.53;;;3.83;68.00
26531;BME280;14201;43.188;24.160;2023-01-31T05:41:39;99381.91;;;3.86;67.72
26531;BME280;14201;43.188;24.160;2023-01-31T05:44:04;99374.56;;;3.92;67.73
26531;BME280;14201;43.188;24.160;2023-01-31T05:46:30;99382.78;;;3.87;68.29
26531;BME280;14201;43.188;24.160;2023-01-31T05:48:55;99362.69;;;3.81;69.00
26531;BME280;14201;43.188;24.160;2023-01-31T05:51:20;99381.03;;;3.86;69.31
26531;BME280;14201;43.188;24.160;2023-01-31T05:53:46;99373.28;;;3.86;68.49
26531;BME280;14201;43.188;24.160;2023-01-31T05:56:13;99379.50;;;3.76;69.35
26531;BME280;14201;43.188;24.160;2023-01-31T05:58:38;99393.00;;;3.85;69.55
26531;BME280;14201;43.188;24.160;2023-01-31T06:01:04;99391.00;;;3.81;69.36
26531;BME280;14201;43.188;24.160;2023-01-31T06:03:29;99387.94;;;3.87;69.08
26531;BME280;14201;43.188;24.160;2023-01-31T06:05:54;99399.50;;;3.93;69.26
26531;BME280;14201;43.188;24.160;2023-01-31T06:08:20;99405.75;;;3.84;69.19
26531;BME280;14201;43.188;24.160;2023-01-31T06:10:45;99406.97;;;3.89;69.24
26531;BME280;14201;43.188;24.160;2023-01-31T06:13:10;99413.50;;;3.84;69.13
26531;BME280;14201;43.188;24.160;2023-01-31T06:15:36;99420.56;;;4.00;68.95
26531;BME280;14201;43.188;24.160;2023-01-31T06:18:02;99420.34;;;3.83;69.52
26531;BME280;14201;43.188;24.160;2023-01-31T06:20:27;99435.50;;;3.92;69.82
26531;BME280;14201;43.188;24.160;2023-01-31T06:22:53;99441.75;;;3.96;69.20
26531;BME280;14201;43.188;24.160;2023-01-31T06:25:18;99440.66;;;3.79;70.84
26531;BME280;14201;43.188;24.160;2023-01-31T06:27:44;99440.84;;;3.95;70.05
26531;BME280;14201;43.188;24.160;2023-01-31T06:30:09;99442.25;;;4.03;69.70
26531;BME280;14201;43.188;24.160;2023-01-31T06:32:35;99432.50;;;4.12;70.14
26531;BME280;14201;43.188;24.160;2023-01-31T06:35:01;99434.00;;;4.22;69.96
26531;BME280;14201;43.188;24.160;2023-01-31T06:37:27;99415.94;;;4.36;69.46
26531;BME280;14201;43.188;24.160;2023-01-31T06:39:52;99426.63;;;4.42;70.28
26531;BME280;14201;43.188;24.160;2023-01-31T06:42:18;99420.06;;;4.60;69.15
26531;BME280;14201;43.188;24.160;2023-01-31T06:44:43;99429.13;;;4.82;68.53
26531;BME280;14201;43.188;24.160;2023-01-31T06:47:09;99426.84;;;5.01;68.07
26531;BME280;14201;43.188;24.160;2023-01-31T06:49:34;99426.09;;;5.17;67.91
26531;BME280;14201;43.188;24.160;2023-01-31T06:52:00;99423.00;;;5.38;67.74
26531;BME280;14201;43.188;24.160;2023-01-31T06:54:25;99416.50;;;5.44;67.05
26531;BME280;14201;43.188;24.160;2023-01-31T06:56:51;99415.97;;;5.50;67.51
26531;BME280;14201;43.188;24.160;2023-01-31T06:59:16;99424.63;;;5.80;66.89
26531;BME280;14201;43.188;24.160;2023-01-31T07:01:41;99425.69;;;5.99;66.46
26531;BME280;14201;43.188;24.160;2023-01-31T07:04:07;99407.34;;;6.09;64.12
26531;BME280;14201;43.188;24.160;2023-01-31T07:06:32;99404.13;;;6.13;64.01
26531;BME280;14201;43.188;24.160;2023-01-31T07:08:58;99411.81;;;6.28;63.98
26531;BME280;14201;43.188;24.160;2023-01-31T07:11:23;99422.34;;;6.31;63.63
26531;BME280;14201;43.188;24.160;2023-01-31T07:13:48;99407.56;;;6.45;63.73
26531;BME280;14201;43.188;24.160;2023-01-31T07:16:14;99401.97;;;6.37;62.65
26531;BME280;14201;43.188;24.160;2023-01-31T07:18:41;99402.16;;;6.40;62.79
26531;BME280;14201;43.188;24.160;2023-01-31T07:21:06;99403.78;;;6.38;63.20
26531;BME280;14201;43.188;24.160;2023-01-31T07:23:32;99401.28;;;6.40;63.50
26531;BME280;14201;43.188;24.160;2023-01-31T07:25:57;99412.25;;;6.67;64.04
26531;BME280;14201;43.188;24.160;2023-01-31T07:28:22;99412.97;;;6.81;62.11
26531;BME280;14201;43.188;24.160;2023-01-31T07:30:48;99409.84;;;6.55;61.96
26531;BME280;14201;43.188;24.160;2023-01-31T07:33:15;99414.97;;;6.54;62.56
26531;BME280;14201;43.188;24.160;2023-01-31T07:35:41;99422.31;;;6.62;62.37
26531;BME280;14201;43.188;24.160;2023-01-31T07:38:06;99414.75;;;6.65;62.24
26531;BME280;14201;43.188;24.160;2023-01-31T07:40:32;99419.25;;;6.86;62.73
26531;BME280;14201;43.188;24.160;2023-01-31T07:42:58;99420.75;;;7.14;62.36
26531;BME280;14201;43.188;24.160;2023-01-31T07:45:24;99419.06;;;7.48;62.41
26531;BME280;14201;43.188;24.160;2023-01-31T07:47:50;99421.56;;;7.81;60.67
26531;BME280;14201;43.188;24.160;2023-01-31T07:50:16;99417.50;;;8.04;60.84
26531;BME280;14201;43.188;24.160;2023-01-31T07:52:41;99409.00;;;8.07;58.90
26531;BME280;14201;43.188;24.160;2023-01-31T07:55:07;99423.28;;;7.99;58.33
26531;BME280;14201;43.188;24.160;2023-01-31T07:57:32;99426.03;;;7.84;60.41
26531;BME280;14201;43.188;24.160;2023-01-31T07:59:57;99422.63;;;8.03;59.98
26531;BME280;14201;43.188;24.160;2023-01-31T08:02:23;99425.59;;;8.11;59.60
26531;BME280;14201;43.188;24.160;2023-01-31T08:05:07;99420.59;;;8.33;59.73
26531;BME280;14201;43.188;24.160;2023-01-31T08:07:33;99418.22;;;8.20;58.26
26531;BME280;14201;43.188;24.160;2023-01-31T08:09:59;99422.09;;;8.10;59.00
26531;BME280;14201;43.188;24.160;2023-01-31T08:12:24;99422.53;;;8.19;58.50
26531;BME280;14201;43.188;24.160;2023-01-31T08:14:49;99420.59;;;8.33;59.34
26531;BME280;14201;43.188;24.160;2023-01-31T08:17:15;99420.53;;;8.32;57.55
26531;BME280;14201;43.188;24.160;2023-01-31T08:19:40;99421.66;;;8.19;57.78
26531;BME280;14201;43.188;24.160;2023-01-31T08:22:06;99405.22;;;8.18;59.43
26531;BME280;14201;43.188;24.160;2023-01-31T08:24:31;99404.66;;;8.25;59.92
26531;BME280;14201;43.188;24.160;2023-01-31T08:26:58;99417.34;;;8.55;58.07
26531;BME280;14201;43.188;24.160;2023-01-31T08:29:23;99400.88;;;8.37;56.89
26531;BME280;14201;43.188;24.160;2023-01-31T08:31:49;99403.94;;;8.28;56.50
26531;BME280;14201;43.188;24.160;2023-01-31T08:34:14;99408.31;;;8.29;57.44
26531;BME280;14201;43.188;24.160;2023-01-31T08:36:40;99406.03;;;7.99;57.80
26531;BME280;14201;43.188;24.160;2023-01-31T08:39:05;99413.88;;;8.01;58.03
26531;BME280;14201;43.188;24.160;2023-01-31T08:41:31;99422.00;;;7.91;58.37
26531;BME280;14201;43.188;24.160;2023-01-31T08:43:57;99416.50;;;7.66;58.16
26531;BME280;14201;43.188;24.160;2023-01-31T08:46:24;99416.28;;;7.62;59.07
26531;BME280;14201;43.188;24.160;2023-01-31T08:48:50;99421.47;;;7.62;58.86
26531;BME280;14201;43.188;24.160;2023-01-31T08:51:16;99430.22;;;7.64;59.15
26531;BME280;14201;43.188;24.160;2023-01-31T08:53:41;99430.84;;;7.60;58.79
26531;BME280;14201;43.188;24.160;2023-01-31T08:56:11;99424.75;;;7.41;58.68
26531;BME280;14201;43.188;24.160;2023-01-31T08:58:37;99437.63;;;7.40;59.38
26531;BME280;14201;43.188;24.160;2023-01-31T09:01:04;99441.44;;;7.30;59.94
26531;BME280;14201;43.188;24.160;2023-01-31T09:03:29;99450.16;;;7.32;60.77
26531;BME280;14201;43.188;24.160;2023-01-31T09:05:58;99439.88;;;7.17;59.87
26531;BME280;14201;43.188;24.160;2023-01-31T09:08:24;99446.78;;;7.17;60.00
26531;BME280;14201;43.188;24.160;2023-01-31T09:10:50;99443.31;;;7.16;60.16
26531;BME280;14201;43.188;24.160;2023-01-31T09:13:16;99442.56;;;7.19;60.36
26531;BME280;14201;43.188;24.160;2023-01-31T09:15:42;99449.78;;;7.08;60.70
26531;BME280;14201;43.188;24.160;2023-01-31T09:18:07;99445.00;;;6.99;61.40
26531;BME280;14201;43.188;24.160;2023-01-31T09:20:33;99449.63;;;7.05;61.70
26531;BME280;14201;43.188;24.160;2023-01-31T09:22:58;99452.28;;;7.06;61.46
26531;BME280;14201;43.188;24.160;2023-01-31T09:25:23;99453.72;;;7.01;61.48
26531;BME280;14201;43.188;24.160;2023-01-31T09:27:50;99446.88;;;7.18;61.48
26531;BME280;14201;43.188;24.160;2023-01-31T09:30:16;99450.03;;;7.13;62.02
26531;BME280;14201;43.188;24.160;2023-01-31T09:32:41;99451.16;;;7.01;61.95
26531;BME280;14201;43.188;24.160;2023-01-31T09:35:08;99441.63;;;7.00;61.52
26531;BME280;14201;43.188;24.160;2023-01-31T09:37:33;99444.34;;;6.87;61.92
26531;BME280;14201;43.188;24.160;2023-01-31T09:39:59;99448.22;;;6.95;61.79
26531;BME280;14201;43.188;24.160;2023-01-31T09:42:35;99436.13;;;6.94;62.25
26531;BME280;14201;43.188;24.160;2023-01-31T09:45:05;99431.25;;;7.00;62.40
26531;BME280;14201;43.188;24.160;2023-01-31T09:47:39;99436.59;;;7.03;62.92
26531;BME280;14201;43.188;24.160;2023-01-31T09:50:11;99440.00;;;7.02;63.21
26531;BME280;14201;43.188;24.160;2023-01-31T09:52:42;99444.63;;;7.08;62.14
26531;BME280;14201;43.188;24.160;2023-01-31T09:55:14;99443.22;;;7.15;62.50
26531;BME280;14201;43.188;24.160;2023-01-31T10:00:26;99439.31;;;7.23;62.28
26531;BME280;14201;43.188;24.160;2023-01-31T10:10:56;99421.09;;;7.38;62.25
26531;BME280;14201;43.188;24.160;2023-01-31T10:18:44;99412.72;;;7.25;61.94
26531;BME280;14201;43.188;24.160;2023-01-31T10:21:14;99423.25;;;7.12;61.29
26531;BME280;14201;43.188;24.160;2023-01-31T10:23:43;99420.22;;;7.21;61.56
26531;BME280;14201;43.188;24.160;2023-01-31T10:28:46;99420.16;;;7.19;61.76
26531;BME280;14201;43.188;24.160;2023-01-31T10:33:48;99415.22;;;7.07;62.08
26531;BME280;14201;43.188;24.160;2023-01-31T10:36:31;99407.44;;;7.07;63.03
26531;BME280;14201;43.188;24.160;2023-01-31T10:39:00;99411.00;;;7.26;62.47
26531;BME280;14201;43.188;24.160;2023-01-31T10:41:30;99401.69;;;7.29;61.42
26531;BME280;14201;43.188;24.160;2023-01-31T10:44:00;99405.91;;;7.27;61.50
26531;BME280;14201;43.188;24.160;2023-01-31T10:46:27;99401.59;;;7.28;61.36
26531;BME280;14201;43.188;24.160;2023-01-31T10:48:53;99398.13;;;7.27;62.31
26531;BME280;14201;43.188;24.160;2023-01-31T10:56:43;99402.88;;;7.53;61.94
26531;BME280;14201;43.188;24.160;2023-01-31T10:59:33;99384.34;;;7.63;61.09
26531;BME280;14201;43.188;24.160;2023-01-31T11:01:55;99395.03;;;7.69;63.05
26531;BME280;14201;43.188;24.160;2023-01-31T11:04:23;99395.88;;;7.86;61.41
26531;BME280;14201;43.188;24.160;2023-01-31T11:06:50;99398.53;;;7.87;61.16
26531;BME280;14201;43.188;24.160;2023-01-31T11:09:15;99404.59;;;7.88;60.50
26531;BME280;14201;43.188;24.160;2023-01-31T11:11:59;99392.81;;;7.77;61.68
26531;BME280;14201;43.188;24.160;2023-01-31T11:14:25;99389.34;;;7.76;61.18
26531;BME280;14201;43.188;24.160;2023-01-31T11:19:36;99394.91;;;7.84;61.35
26531;BME280;14201;43.188;24.160;2023-01-31T11:22:02;99390.59;;;7.84;60.53
26531;BME280;14201;43.188;24.160;2023-01-31T11:24:29;99400.84;;;7.81;61.11
26531;BME280;14201;43.188;24.160;2023-01-31T11:29:24;99389.13;;;7.89;60.69
26531;BME280;14201;43.188;24.160;2023-01-31T11:31:52;99386.47;;;7.88;61.25
26531;BME280;14201;43.188;24.160;2023-01-31T11:34:19;99387.63;;;7.95;60.81
26531;BME280;14201;43.188;24.160;2023-01-31T11:36:44;99386.00;;;7.79;61.61
26531;BME280;14201;43.188;24.160;2023-01-31T11:39:27;99382.06;;;7.69;61.79
26531;BME280;14201;43.188;24.160;2023-01-31T11:41:53;99378.31;;;7.80;61.51
26531;BME280;14201;43.188;24.160;2023-01-31T11:44:19;99373.63;;;7.73;61.96
26531;BME280;14201;43.188;24.160;2023-01-31T11:46:46;99372.31;;;7.81;61.20
26531;BME280;14201;43.188;24.160;2023-01-31T11:49:13;99372.38;;;7.65;59.66
26531;BME280;14201;43.188;24.160;2023-01-31T11:51:42;99379.53;;;7.53;59.82
26531;BME280;14201;43.188;24.160;2023-01-31T11:54:10;99370.81;;;7.51;60.94
26531;BME280;14201;43.188;24.160;2023-01-31T11:56:41;99372.81;;;7.56;60.51
26531;BME280;14201;43.188;24.160;2023-01-31T11:59:08;99364.22;;;7.57;61.52
26531;BME280;14201;43.188;24.160;2023-01-31T12:01:48;99372.06;;;7.59;62.83
26531;BME280;14201;43.188;24.160;2023-01-31T12:04:15;99375.50;;;7.94;61.94
26531;BME280;14201;43.188;24.160;2023-01-31T12:06:41;99384.78;;;8.06;61.64
26531;BME280;14201;43.188;24.160;2023-01-31T12:09:22;99384.00;;;8.09;61.03
26531;BME280;14201;43.188;24.160;2023-01-31T12:11:49;99377.03;;;8.08;60.58
26531;BME280;14201;43.188;24.160;2023-01-31T12:14:16;99383.84;;;8.06;60.40
26531;BME280;14201;43.188;24.160;2023-01-31T12:16:43;99383.53;;;8.18;60.92
26531;BME280;14201;43.188;24.160;2023-01-31T12:26:48;99395.84;;;9.16;57.48
26531;BME280;14201;43.188;24.160;2023-01-31T12:34:22;99397.84;;;8.83;58.93
26531;BME280;14201;43.188;24.160;2023-01-31T12:55:55;99416.28;;;9.09;58.05
26531;BME280;14201;43.188;24.160;2023-01-31T13:01:16;99409.09;;;8.83;57.03
26531;BME280;14201;43.188;24.160;2023-01-31T13:06:22;99416.91;;;8.83;57.56
26531;BME280;14201;43.188;24.160;2023-01-31T13:08:51;99407.97;;;8.77;57.03
26531;BME280;14201;43.188;24.160;2023-01-31T13:11:26;99427.69;;;8.73;57.21
26531;BME280;14201;43.188;24.160;2023-01-31T13:13:56;99420.69;;;8.53;58.68
26531;BME280;14201;43.188;24.160;2023-01-31T13:18:50;99422.44;;;8.72;58.41
26531;BME280;14201;43.188;24.160;2023-01-31T13:21:17;99421.38;;;8.86;58.29
26531;BME280;14201;43.188;24.160;2023-01-31T13:23:45;99424.59;;;9.00;57.63
26531;BME280;14201;43.188;24.160;2023-01-31T13:26:23;99433.19;;;8.99;57.03
26531;BME280;14201;43.188;24.160;2023-01-31T13:31:24;99440.00;;;8.97;56.54
26531;BME280;14201;43.188;24.160;2023-01-31T13:33:59;99442.50;;;8.94;56.32
26531;BME280;14201;43.188;24.160;2023-01-31T13:36:32;99456.25;;;8.37;56.51
26531;BME280;14201;43.188;24.160;2023-01-31T13:39:01;99460.63;;;8.38;57.06
26531;BME280;14201;43.188;24.160;2023-01-31T13:41:31;99457.16;;;8.20;56.74
26531;BME280;14201;43.188;24.160;2023-01-31T13:43:57;99468.56;;;8.05;57.31
26531;BME280;14201;43.188;24.160;2023-01-31T13:46:43;99457.25;;;7.87;57.90
26531;BME280;14201;43.188;24.160;2023-01-31T13:49:24;99461.09;;;7.77;58.46
26531;BME280;14201;43.188;24.160;2023-01-31T13:51:56;99464.91;;;7.84;58.97
26531;BME280;14201;43.188;24.160;2023-01-31T13:54:24;99453.72;;;7.85;59.00
26531;BME280;14201;43.188;24.160;2023-01-31T13:56:51;99451.06;;;7.83;59.31
26531;BME280;14201;43.188;24.160;2023-01-31T13:59:28;99446.75;;;7.84;59.19
26531;BME280;14201;43.188;24.160;2023-01-31T14:01:55;99457.34;;;7.88;59.26
26531;BME280;14201;43.188;24.160;2023-01-31T14:04:25;99463.19;;;7.84;59.05
26531;BME280;14201;43.188;24.160;2023-01-31T14:09:23;99463.78;;;7.79;58.77
26531;BME280;14201;43.188;24.160;2023-01-31T14:11:49;99466.25;;;7.59;59.83
26531;BME280;14201;43.188;24.160;2023-01-31T14:14:28;99465.47;;;7.44;60.20
26531;BME280;14201;43.188;24.160;2023-01-31T14:17:12;99477.94;;;7.51;60.51
26531;BME280;14201;43.188;24.160;2023-01-31T14:30:09;99485.47;;;7.14;61.40
26531;BME280;14201;43.188;24.160;2023-01-31T14:32:37;99486.78;;;7.22;61.39
26531;BME280;14201;43.188;24.160;2023-01-31T14:42:52;99490.81;;;7.00;62.21
26531;BME280;14201;43.188;24.160;2023-01-31T14:48:45;99485.63;;;7.00;62.04
26531;BME280;14201;43.188;24.160;2023-01-31T14:51:00;99494.38;;;7.02;62.28
26531;BME280;14201;43.188;24.160;2023-01-31T14:56:42;99503.75;;;7.00;62.66
26531;BME280;14201;43.188;24.160;2023-01-31T15:02:22;99515.97;;;6.86;63.16
26531;BME280;14201;43.188;24.160;2023-01-31T15:05:23;99515.88;;;6.85;62.85
26531;BME280;14201;43.188;24.160;2023-01-31T15:13:51;99520.44;;;6.74;63.78
26531;BME280;14201;43.188;24.160;2023-01-31T15:16:44;99516.88;;;6.72;63.82
26531;BME280;14201;43.188;24.160;2023-01-31T15:19:06;99526.16;;;6.68;63.57